Time;durP1;ratioP1;P1;durP2;ratioP2;P2;SDS_P1;SDS_P2;PMS_P1;PMS_P2;Temp;Humidity;BMP_temperature;BMP_pressure;BME280_temperature;BME280_humidity;BME280_pressure;Samples;Min_cycle;Max_cycle;Signal;HPM_P1;HPM_P2
2023/11/02 00:01:42;;;;;;;0.85;0.40;;;;;;;10.35;100.00;99272.91;6251475;28;20065;-73
2023/11/02 00:04:45;;;;;;;1.20;0.57;;;;;;;10.35;100.00;99259.78;6252429;28;20045;-73
2023/11/02 00:07:46;;;;;;;2.90;0.80;;;;;;;10.35;100.00;99246.66;6251739;28;20076;-72
2023/11/02 00:10:48;;;;;;;1.85;0.50;;;;;;;10.35;100.00;99230.91;6252028;28;20052;-73
2023/11/02 00:13:50;;;;;;;2.30;0.60;;;;;;;10.33;100.00;99224.94;6251936;28;20049;-73
2023/11/02 00:16:52;;;;;;;1.08;0.50;;;;;;;10.29;100.00;99216.44;6251989;28;20460;-75
2023/11/02 00:19:55;;;;;;;0.30;0.30;;;;;;;10.25;100.00;99215.00;6251763;28;20045;-74
2023/11/02 00:22:57;;;;;;;6.55;0.73;;;;;;;10.19;100.00;99204.13;6251344;28;20049;-74
2023/11/02 00:25:58;;;;;;;1.38;0.50;;;;;;;10.16;100.00;99207.81;6251656;28;20052;-75
2023/11/02 00:28:59;;;;;;;1.20;0.68;;;;;;;10.16;100.00;99210.44;6251498;28;20056;-74
2023/11/02 00:32:01;;;;;;;2.28;0.55;;;;;;;10.16;100.00;99206.00;6249149;28;20056;-74
2023/11/02 00:35:05;;;;;;;3.78;0.80;;;;;;;10.14;100.00;99204.47;6251335;28;20045;-74
2023/11/02 00:38:06;;;;;;;0.93;0.45;;;;;;;10.09;100.00;99204.81;6251291;28;20120;-74
2023/11/02 00:41:08;;;;;;;1.67;0.60;;;;;;;10.07;100.00;99200.63;6251035;28;20045;-74
2023/11/02 00:44:09;;;;;;;0.90;0.40;;;;;;;10.03;100.00;99188.69;6251604;28;20057;-74
2023/11/02 00:47:11;;;;;;;3.33;0.50;;;;;;;10.00;100.00;99197.66;6251104;28;20060;-74
2023/11/02 00:50:56;;;;;;;3.60;0.52;;;;;;;9.94;100.00;99184.97;6250847;28;20045;-74
2023/11/02 00:53:58;;;;;;;2.38;0.60;;;;;;;9.93;100.00;99170.19;6250683;28;20453;-74
2023/11/02 00:57:04;;;;;;;0.40;0.40;;;;;;;9.89;100.00;99164.34;6251100;28;20050;-74
2023/11/02 01:00:07;;;;;;;0.95;0.43;;;;;;;9.88;100.00;99170.53;6250873;28;20136;-73
2023/11/02 01:03:09;;;;;;;3.33;0.50;;;;;;;9.89;100.00;99171.38;6250729;28;20123;-73
2023/11/02 01:06:16;;;;;;;1.75;0.73;;;;;;;9.88;100.00;99167.09;6248943;28;20045;-73
2023/11/02 01:09:44;;;;;;;4.45;0.70;;;;;;;9.83;100.00;99166.59;6250688;28;20136;-74
2023/11/02 01:12:45;;;;;;;5.97;0.77;;;;;;;9.84;100.00;99158.59;6242416;28;20057;-73
2023/11/02 01:16:04;;;;;;;0.63;0.47;;;;;;;9.85;100.00;99156.81;6250365;28;20327;-73
2023/11/02 01:19:28;;;;;;;3.28;0.70;;;;;;;9.84;100.00;99149.91;6250544;28;20049;-73
2023/11/02 01:22:50;;;;;;;0.98;0.60;;;;;;;9.81;100.00;99152.75;6250014;28;20056;-74
2023/11/02 01:25:51;;;;;;;2.90;0.60;;;;;;;9.80;100.00;99140.59;6250665;28;20053;-73
2023/11/02 01:28:54;;;;;;;2.17;0.70;;;;;;;9.77;100.00;99141.69;6250254;28;20072;-73
2023/11/02 01:31:56;;;;;;;1.95;0.50;;;;;;;9.73;100.00;99144.66;6250036;28;20057;-73
2023/11/02 01:34:57;;;;;;;6.80;0.85;;;;;;;9.75;100.00;99138.31;6250514;28;20050;-74
2023/11/02 01:38:00;;;;;;;0.63;0.45;;;;;;;9.76;100.00;99128.66;6255382;28;20464;-74
2023/11/02 01:41:04;;;;;;;3.13;0.63;;;;;;;9.73;100.00;99123.66;6258423;28;20056;-74
2023/11/02 01:44:12;;;;;;;4.82;0.68;;;;;;;9.73;100.00;99123.66;6258795;28;20054;-74
2023/11/02 01:47:25;;;;;;;3.83;0.77;;;;;;;9.71;100.00;99112.44;6258596;28;20049;-73
2023/11/02 01:50:33;;;;;;;0.35;0.35;;;;;;;9.62;100.00;99098.22;6258463;28;20080;-74
2023/11/02 01:53:48;;;;;;;0.93;0.60;;;;;;;9.65;100.00;99106.69;6258220;28;20053;-74
2023/11/02 01:56:54;;;;;;;1.17;0.55;;;;;;;9.60;100.00;99095.72;6258276;28;20453;-73
2023/11/02 02:00:05;;;;;;;1.55;0.50;;;;;;;9.60;100.00;99081.78;6258582;28;20057;-73
2023/11/02 02:03:15;;;;;;;1.15;0.50;;;;;;;9.59;100.00;99080.13;6258269;28;20045;-73
2023/11/02 02:06:21;;;;;;;0.77;0.50;;;;;;;9.51;100.00;99061.50;6258366;28;20053;-73
2023/11/02 02:09:40;;;;;;;9.35;0.70;;;;;;;9.46;100.00;99059.22;6258310;28;20045;-73
2023/11/02 02:13:03;;;;;;;4.50;1.00;;;;;;;9.44;100.00;99055.03;6258141;28;20057;-73
2023/11/02 02:16:13;;;;;;;5.15;0.65;;;;;;;9.37;100.00;99062.53;6258318;28;20054;-73
2023/11/02 02:19:27;;;;;;;;;;;;;;;9.31;100.00;99063.84;6258678;28;20421;-73
2023/11/02 02:22:34;;;;;;;5.15;0.55;;;;;;;9.34;100.00;99058.34;6257987;28;19928;-73
2023/11/02 02:25:45;;;;;;;3.45;0.63;;;;;;;9.31;100.00;99049.88;6258207;28;20342;-73
2023/11/02 02:29:05;;;;;;;2.05;0.40;;;;;;;9.30;100.00;99049.06;6257960;28;20461;-73
2023/11/02 02:32:32;;;;;;;0.98;0.47;;;;;;;9.24;100.00;99039.03;6257685;28;20045;-73
2023/11/02 02:35:37;;;;;;;0.55;0.40;;;;;;;9.23;100.00;99026.88;6258059;28;20060;-73
2023/11/02 02:38:44;;;;;;;1.38;0.40;;;;;;;9.21;100.00;99025.31;6258206;28;20055;-73
2023/11/02 02:41:52;;;;;;;3.95;0.50;;;;;;;9.17;100.00;99022.09;6257792;28;20045;-73
2023/11/02 02:44:57;;;;;;;3.25;0.60;;;;;;;9.13;100.00;99016.28;6258161;28;20053;-73
2023/11/02 02:48:02;;;;;;;1.10;0.70;;;;;;;9.14;100.00;99011.84;6257078;28;20454;-73
2023/11/02 02:51:08;;;;;;;1.75;0.60;;;;;;;9.12;100.00;99001.47;6253809;28;20041;-73
2023/11/02 02:54:13;;;;;;;1.15;0.43;;;;;;;9.08;100.00;98992.19;6254136;28;20061;-73
2023/11/02 02:57:18;;;;;;;2.03;0.75;;;;;;;9.09;100.00;98993.03;6253754;28;20357;-73
2023/11/02 03:00:21;;;;;;;1.52;0.47;;;;;;;9.09;100.00;98985.16;6253858;28;20049;-73
2023/11/02 03:03:26;;;;;;;8.60;0.65;;;;;;;9.11;100.00;98978.00;6253541;28;20072;-73
2023/11/02 03:06:30;;;;;;;2.97;0.57;;;;;;;9.08;100.00;98965.13;6252835;28;20068;-73
2023/11/02 03:09:34;;;;;;;3.83;0.60;;;;;;;9.07;100.00;98958.22;6253268;28;20049;-73
2023/11/02 03:12:39;;;;;;;2.05;0.40;;;;;;;9.07;100.00;98955.59;6253651;28;20060;-73
2023/11/02 03:15:44;;;;;;;1.63;0.60;;;;;;;9.08;100.00;98946.78;6253252;28;20060;-73
2023/11/02 03:18:45;;;;;;;2.83;0.38;;;;;;;9.10;100.00;98935.25;6253321;28;20061;-73
2023/11/02 03:21:48;;;;;;;1.20;0.55;;;;;;;9.10;100.00;98926.56;6252956;28;20049;-73
2023/11/02 03:25:02;;;;;;;2.47;0.68;;;;;;;9.07;100.00;98913.69;6245401;28;20327;-73
2023/11/02 03:28:11;;;;;;;1.95;0.63;;;;;;;9.05;100.00;98903.34;6253091;28;20083;-73
2023/11/02 03:31:25;;;;;;;0.60;0.50;;;;;;;9.10;100.00;98892.50;6252880;28;20057;-73
2023/11/02 03:34:36;;;;;;;0.90;0.70;;;;;;;9.14;100.00;98881.66;6252997;28;20057;-73
2023/11/02 03:37:45;;;;;;;4.43;0.60;;;;;;;9.14;100.00;98880.84;6253193;28;20132;-73
2023/11/02 03:40:55;;;;;;;;;;;;;;;9.18;100.00;98871.78;6253379;28;20350;-73
2023/11/02 03:44:03;;;;;;;3.08;1.23;;;;;;;9.24;100.00;98862.59;6252905;28;19921;-73
2023/11/02 03:47:23;;;;;;;1.52;0.40;;;;;;;9.26;100.00;98858.88;6251761;28;20061;-73
2023/11/02 03:50:41;;;;;;;3.15;1.13;;;;;;;9.28;100.00;98851.75;6252677;28;20045;-73
2023/11/02 03:53:56;;;;;;;1.27;0.80;;;;;;;9.30;100.00;98835.91;6252045;28;20052;-73
2023/11/02 03:57:09;;;;;;;3.50;0.60;;;;;;;9.31;100.00;98812.22;6228148;28;20057;-73
2023/11/02 04:00:15;;;;;;;0.68;0.60;;;;;;;9.34;100.00;98790.16;6227101;28;20052;-73
2023/11/02 04:03:20;;;;;;;2.30;0.77;;;;;;;9.38;100.00;98778.47;6227839;28;20050;-73
2023/11/02 04:06:31;;;;;;;4.78;0.73;;;;;;;9.39;100.00;98762.59;6227631;28;20065;-73
2023/11/02 04:09:43;;;;;;;1.90;0.68;;;;;;;9.33;100.00;98755.25;6227618;28;20061;-73
2023/11/02 04:12:56;;;;;;;0.55;0.40;;;;;;;9.32;100.00;98753.59;6227644;28;20060;-73
2023/11/02 04:15:57;;;;;;;3.70;0.50;;;;;;;9.29;100.00;98742.50;6249580;28;20057;-73
2023/11/02 04:19:00;;;;;;;2.78;0.52;;;;;;;9.32;100.00;98745.72;6249350;28;20053;-73
2023/11/02 04:22:03;;;;;;;0.75;0.63;;;;;;;9.36;100.00;98748.94;6251664;28;20049;-73
2023/11/02 04:25:06;;;;;;;1.27;0.45;;;;;;;9.36;100.00;98726.16;6240334;28;20465;-73
2023/11/02 04:28:08;;;;;;;1.08;0.65;;;;;;;9.33;100.00;98722.94;6238116;28;20041;-73
2023/11/02 04:31:09;;;;;;;1.13;0.52;;;;;;;9.37;100.00;98717.34;6239361;28;20048;-74
2023/11/02 04:34:11;;;;;;;1.35;0.70;;;;;;;9.40;100.00;98711.84;6238566;28;20050;-73
2023/11/02 04:37:13;;;;;;;3.15;0.60;;;;;;;9.41;100.00;98689.09;6239102;28;20049;-74
2023/11/02 04:40:16;;;;;;;0.40;0.40;;;;;;;9.43;100.00;98678.47;6238980;28;20042;-74
2023/11/02 04:43:18;;;;;;;1.17;0.65;;;;;;;9.45;100.00;98676.53;6238103;28;20045;-74
2023/11/02 04:46:19;;;;;;;0.88;0.45;;;;;;;9.48;100.00;98673.69;6239371;28;20046;-73
2023/11/02 04:49:20;;;;;;;0.50;0.40;;;;;;;9.49;100.00;98665.69;6237813;28;20048;-74
2023/11/02 04:52:22;;;;;;;3.13;0.70;;;;;;;9.53;100.00;98645.28;6239320;28;20144;-73
2023/11/02 04:55:25;;;;;;;0.40;0.30;;;;;;;9.59;100.00;98629.91;6237268;28;20049;-74
2023/11/02 04:58:26;;;;;;;0.50;0.47;;;;;;;9.59;100.00;98626.44;6237117;28;20053;-73
2023/11/02 05:01:28;;;;;;;1.98;0.68;;;;;;;9.60;100.00;98622.84;6245371;28;20042;-74
2023/11/02 05:04:29;;;;;;;4.95;0.60;;;;;;;9.65;100.00;98607.56;6250898;28;20050;-74
2023/11/02 05:07:31;;;;;;;2.08;0.75;;;;;;;9.66;100.00;98606.59;6250490;28;20045;-74
2023/11/02 05:10:33;;;;;;;3.47;0.57;;;;;;;9.62;100.00;98603.41;6250565;28;20045;-74
2023/11/02 05:13:35;;;;;;;3.25;0.43;;;;;;;9.62;100.00;98595.53;6250006;28;20053;-74
2023/11/02 05:16:36;;;;;;;1.10;0.60;;;;;;;9.63;100.00;98591.13;6248909;28;20049;-73
2023/11/02 05:19:38;;;;;;;0.30;0.30;;;;;;;9.63;100.00;98597.22;6250527;28;20049;-73
2023/11/02 05:22:39;;;;;;;0.57;0.52;;;;;;;9.68;100.00;98582.88;6250416;28;20088;-74
2023/11/02 05:25:42;;;;;;;3.95;0.90;;;;;;;9.69;100.00;98587.16;6250558;28;20053;-74
2023/11/02 05:28:43;;;;;;;1.75;0.60;;;;;;;9.69;100.00;98581.91;6250698;28;20049;-74
2023/11/02 05:31:45;;;;;;;7.03;0.68;;;;;;;9.70;100.00;98566.03;6249199;28;20057;-74
2023/11/02 05:34:46;;;;;;;1.50;0.40;;;;;;;9.68;100.00;98561.91;6236669;28;20050;-74
2023/11/02 05:37:48;;;;;;;3.80;0.52;;;;;;;9.71;100.00;98548.50;6249793;28;20050;-74
2023/11/02 05:40:50;;;;;;;1.08;0.60;;;;;;;9.77;100.00;98538.34;6244933;28;20056;-73
2023/11/02 05:43:52;;;;;;;0.95;0.50;;;;;;;9.76;100.00;98525.34;6236242;28;20073;-74
2023/11/02 05:46:53;;;;;;;3.45;0.60;;;;;;;9.78;100.00;98529.50;6238592;28;20378;-72
2023/11/02 05:49:55;;;;;;;1.45;0.63;;;;;;;9.75;100.00;98523.69;6236966;28;20042;-73
2023/11/02 05:52:56;;;;;;;1.70;0.73;;;;;;;9.77;100.00;98520.00;6244328;28;20046;-74
2023/11/02 05:55:59;;;;;;;3.35;0.70;;;;;;;9.81;100.00;98505.66;6250307;28;20049;-73
2023/11/02 05:59:01;;;;;;;0.65;0.50;;;;;;;9.84;100.00;98494.88;6241301;28;20061;-74
2023/11/02 06:02:02;;;;;;;1.83;0.50;;;;;;;9.86;100.00;98510.50;6236380;28;20083;-74
2023/11/02 06:05:05;;;;;;;0.82;0.52;;;;;;;9.91;100.00;98498.63;6238375;28;20065;-72
2023/11/02 06:08:06;;;;;;;1.33;0.40;;;;;;;9.94;100.00;98491.44;6236482;28;20350;-74
2023/11/02 06:11:09;;;;;;;0.90;0.43;;;;;;;9.99;100.00;98482.25;6237340;28;20053;-74
2023/11/02 06:14:10;;;;;;;6.22;0.40;;;;;;;10.00;100.00;98475.19;6246030;28;20049;-74
2023/11/02 06:17:12;;;;;;;1.35;0.68;;;;;;;9.98;100.00;98461.34;6249900;28;20053;-73
2023/11/02 06:20:13;;;;;;;3.00;0.52;;;;;;;9.99;100.00;98442.03;6250085;28;20433;-73
2023/11/02 06:23:15;;;;;;;1.45;0.40;;;;;;;9.94;100.00;98429.31;6250840;28;20050;-74
2023/11/02 06:26:18;;;;;;;6.78;0.43;;;;;;;10.00;100.00;98414.84;6251209;28;20049;-74
2023/11/02 06:29:20;;;;;;;1.35;0.50;;;;;;;9.96;100.00;98389.84;6254467;28;20056;-73
2023/11/02 06:32:22;;;;;;;1.35;0.55;;;;;;;9.93;100.00;98371.75;6253974;28;20069;-74
2023/11/02 06:35:24;;;;;;;1.95;1.25;;;;;;;9.90;100.00;98350.06;6254403;28;20053;-73
2023/11/02 06:38:25;;;;;;;2.40;0.55;;;;;;;9.89;100.00;98335.28;6254183;28;20146;-74
2023/11/02 06:41:28;;;;;;;1.70;0.40;;;;;;;9.84;100.00;98319.13;6254166;28;20053;-74
2023/11/02 06:44:30;;;;;;;2.47;0.47;;;;;;;9.83;100.00;98314.00;6250992;28;20054;-73
2023/11/02 06:47:31;;;;;;;0.40;0.32;;;;;;;9.83;100.00;98301.72;6248341;28;20060;-74
2023/11/02 06:50:33;;;;;;;2.08;0.40;;;;;;;9.84;100.00;98313.03;6253746;28;20353;-73
2023/11/02 06:53:34;;;;;;;1.08;0.52;;;;;;;9.84;100.00;98299.94;6253785;28;20457;-73
2023/11/02 06:56:37;;;;;;;0.52;0.50;;;;;;;9.87;100.00;98292.63;6234801;28;20054;-74
2023/11/02 06:59:38;;;;;;;2.03;0.40;;;;;;;9.90;100.00;98299.38;6228705;28;20057;-74
2023/11/02 07:02:40;;;;;;;1.42;0.70;;;;;;;9.93;100.00;98295.66;6234365;28;20442;-73
2023/11/02 07:05:42;;;;;;;6.97;0.80;;;;;;;9.97;100.00;98310.16;6229039;28;20438;-73
2023/11/02 07:08:43;;;;;;;5.15;0.40;;;;;;;10.07;100.00;98309.19;6229076;28;20438;-73
2023/11/02 07:11:46;;;;;;;2.72;0.55;;;;;;;10.16;100.00;98284.72;6228466;28;20069;-73
2023/11/02 07:14:48;;;;;;;4.43;0.95;;;;;;;10.20;100.00;98271.34;6232773;28;20442;-73
2023/11/02 07:17:50;;;;;;;4.60;0.45;;;;;;;10.24;100.00;98270.09;6250832;28;20088;-74
2023/11/02 07:20:51;;;;;;;0.82;0.60;;;;;;;10.35;100.00;98238.44;6246107;28;20049;-73
2023/11/02 07:23:53;;;;;;;1.67;0.45;;;;;;;10.37;100.00;98216.34;6247085;28;20049;-72
2023/11/02 07:26:55;;;;;;;3.90;0.43;;;;;;;10.39;100.00;98182.88;6245669;28;20371;-74
2023/11/02 07:29:57;;;;;;;2.35;0.40;;;;;;;10.42;100.00;98145.03;6252729;28;20076;-74
2023/11/02 07:32:58;;;;;;;1.67;0.50;;;;;;;10.40;100.00;98168.81;6252988;28;20048;-74
2023/11/02 07:36:00;;;;;;;1.75;0.40;;;;;;;10.46;100.00;98153.44;6252027;28;20056;-70
2023/11/02 07:39:01;;;;;;;2.35;0.40;;;;;;;10.38;100.00;98125.28;6252322;28;20046;-73
2023/11/02 07:42:05;;;;;;;0.70;0.47;;;;;;;10.37;100.00;98110.50;6252827;28;20136;-74
2023/11/02 07:45:07;;;;;;;1.10;0.50;;;;;;;10.39;100.00;98130.38;6252673;28;20057;-73
2023/11/02 07:48:08;;;;;;;1.92;0.60;;;;;;;10.40;100.00;98111.06;6252798;28;20045;-72
2023/11/02 07:51:10;;;;;;;1.58;0.35;;;;;;;10.44;100.00;98098.44;6252021;28;20045;-73
2023/11/02 07:54:11;;;;;;;1.95;0.68;;;;;;;10.46;100.00;98120.13;6252679;28;20049;-72
2023/11/02 07:57:15;;;;;;;1.63;0.40;;;;;;;10.51;100.00;98140.72;6252228;28;20335;-72
2023/11/02 08:00:18;;;;;;;1.90;0.40;;;;;;;10.53;100.00;98197.34;6246023;28;20056;-72
2023/11/02 08:03:21;;;;;;;1.00;0.50;;;;;;;10.61;100.00;98196.63;6238815;28;20363;-73
2023/11/02 08:06:23;;;;;;;1.75;0.50;;;;;;;10.58;100.00;98183.78;6248111;28;20055;-72
2023/11/02 08:09:24;;;;;;;2.78;0.60;;;;;;;10.60;100.00;98143.28;6252056;28;20358;-72
2023/11/02 08:12:27;;;;;;;1.25;0.57;;;;;;;10.59;100.00;98146.88;6250514;28;20544;-72
2023/11/02 08:15:29;;;;;;;2.17;0.50;;;;;;;10.67;100.00;98185.53;6251554;28;20045;-73
2023/11/02 08:18:31;;;;;;;0.55;0.30;;;;;;;10.62;100.00;98208.78;6244419;28;20104;-74
2023/11/02 08:21:32;;;;;;;0.35;0.35;;;;;;;10.69;100.00;98185.41;6251290;28;20046;-75
2023/11/02 08:24:34;;;;;;;6.78;0.47;;;;;;;10.67;100.00;98175.03;6251413;28;20434;-75
2023/11/02 08:27:37;;;;;;;0.63;0.40;;;;;;;10.61;100.00;98167.75;6251669;28;20049;-76
2023/11/02 08:30:40;;;;;;;0.57;0.30;;;;;;;10.68;100.00;98163.56;6251543;28;20068;-79
2023/11/02 08:33:41;;;;;;;0.75;0.43;;;;;;;10.78;100.00;98135.44;6252009;28;20461;-73
2023/11/02 08:36:42;;;;;;;0.88;0.40;;;;;;;10.76;100.00;98126.03;6245387;28;20045;-73
2023/11/02 08:39:44;;;;;;;1.23;0.45;;;;;;;10.80;100.00;98119.53;6250983;28;20180;-74
2023/11/02 08:42:47;;;;;;;4.22;0.82;;;;;;;10.76;100.00;98116.34;6251104;28;20037;-74
2023/11/02 08:45:48;;;;;;;2.65;0.40;;;;;;;10.76;100.00;98094.53;6248970;28;20057;-74
2023/11/02 08:48:52;;;;;;;0.50;0.40;;;;;;;10.73;100.00;98114.06;6250579;28;20056;-73
2023/11/02 08:51:53;;;;;;;1.30;0.40;;;;;;;10.73;100.00;98106.16;6250177;28;20045;-74
2023/11/02 08:54:55;;;;;;;2.45;0.52;;;;;;;10.74;100.00;98112.25;6251174;28;20057;-75
2023/11/02 08:57:57;;;;;;;2.78;0.45;;;;;;;10.78;100.00;98092.59;6249040;28;20053;-74
2023/11/02 09:00:59;;;;;;;2.97;0.60;;;;;;;10.78;100.00;98089.97;6245453;28;20054;-74
2023/11/02 09:04:01;;;;;;;0.75;0.30;;;;;;;10.78;100.00;98088.16;6250766;28;20060;-74
2023/11/02 09:07:02;;;;;;;0.93;0.60;;;;;;;10.84;100.00;98090.19;6251009;28;20060;-73
2023/11/02 09:10:05;;;;;;;1.45;0.65;;;;;;;10.88;100.00;98080.22;6250650;28;20053;-73
2023/11/02 09:13:08;;;;;;;0.47;0.30;;;;;;;10.90;100.00;98089.59;6250808;28;20052;-73
2023/11/02 09:16:10;;;;;;;2.85;0.30;;;;;;;11.01;100.00;98067.53;6248627;28;20049;-73
2023/11/02 09:19:12;;;;;;;1.50;0.50;;;;;;;11.07;100.00;98071.34;6250377;28;20132;-73
2023/11/02 09:22:13;;;;;;;0.30;0.30;;;;;;;11.11;100.00;98070.91;6250006;28;20045;-75
2023/11/02 09:25:14;;;;;;;4.25;0.40;;;;;;;11.20;100.00;98050.75;6250548;28;20064;-73
2023/11/02 09:28:18;;;;;;;1.30;0.40;;;;;;;11.22;100.00;98053.22;6250399;28;20175;-73
2023/11/02 09:31:22;;;;;;;2.70;0.32;;;;;;;11.20;100.00;98031.53;6249693;28;20050;-74
2023/11/02 09:34:23;;;;;;;3.30;0.50;;;;;;;11.26;100.00;98049.31;6248467;28;20050;-74
2023/11/02 09:37:25;;;;;;;3.83;0.45;;;;;;;11.30;100.00;98056.75;6250060;28;20045;-73
2023/11/02 09:40:27;;;;;;;2.00;0.50;;;;;;;11.29;100.00;98049.84;6245941;28;20045;-73
2023/11/02 09:43:30;;;;;;;1.20;0.40;;;;;;;11.39;100.00;98033.97;6246499;28;20049;-73
2023/11/02 09:46:32;;;;;;;0.50;0.30;;;;;;;11.51;100.00;98024.03;6250005;28;20056;-75
2023/11/02 09:49:34;;;;;;;2.33;0.50;;;;;;;11.63;100.00;97991.25;6250056;28;20056;-74
2023/11/02 09:52:36;;;;;;;2.45;0.88;;;;;;;11.68;100.00;97994.22;6249632;28;20132;-73
2023/11/02 09:55:39;;;;;;;0.52;0.32;;;;;;;11.75;100.00;97991.78;6245091;28;20049;-73
2023/11/02 09:58:43;;;;;;;0.45;0.32;;;;;;;11.81;100.00;97988.50;6253903;28;20411;-73
2023/11/02 10:01:45;;;;;;;1.00;0.40;;;;;;;11.85;100.00;97987.25;6255037;28;20045;-77
2023/11/02 10:04:47;;;;;;;0.88;0.32;;;;;;;11.97;100.00;97986.00;6254896;28;20049;-74
2023/11/02 10:07:50;;;;;;;0.40;0.38;;;;;;;12.03;100.00;97980.09;6254886;28;20053;-74
2023/11/02 10:10:53;;;;;;;0.85;0.20;;;;;;;12.14;100.00;97979.81;6254658;28;20408;-75
2023/11/02 10:13:56;;;;;;;0.22;0.22;;;;;;;12.21;100.00;97974.72;6254889;28;20552;-74
2023/11/02 10:17:02;;;;;;;0.20;0.20;;;;;;;12.25;100.00;97964.69;6246702;28;20735;-74
2023/11/02 10:20:10;;;;;;;1.02;0.52;;;;;;;12.25;100.00;97967.31;6254853;28;20049;-73
2023/11/02 10:23:13;;;;;;;1.00;0.45;;;;;;;12.30;100.00;97955.31;6254459;28;20056;-73
2023/11/02 10:26:15;;;;;;;0.32;0.17;;;;;;;12.33;100.00;97959.44;6254424;28;20429;-74
2023/11/02 10:29:18;;;;;;;0.65;0.30;;;;;;;12.41;100.00;97951.56;6254195;28;20475;-75
2023/11/02 10:32:22;;;;;;;0.30;0.20;;;;;;;12.37;100.00;97958.97;6253604;28;20048;-74
2023/11/02 10:35:24;;;;;;;0.28;0.28;;;;;;;12.46;100.00;97948.44;6254489;28;20049;-75
2023/11/02 10:38:25;;;;;;;2.20;0.40;;;;;;;12.59;100.00;97947.00;6254197;28;20342;-74
2023/11/02 10:41:27;;;;;;;0.10;0.10;;;;;;;12.77;100.00;97936.28;6253938;28;20041;-73
2023/11/02 10:44:31;;;;;;;0.73;0.40;;;;;;;13.02;100.00;97921.28;6253483;28;20049;-77
2023/11/02 10:47:37;;;;;;;1.20;0.20;;;;;;;13.00;100.00;97914.53;6253185;28;20048;-74
2023/11/02 10:50:40;;;;;;;0.65;0.20;;;;;;;12.89;100.00;97895.41;6253704;28;20505;-74
2023/11/02 10:53:51;;;;;;;2.47;0.20;;;;;;;12.91;100.00;97896.09;6248617;28;20049;-72
2023/11/02 10:57:02;;;;;;;0.80;0.35;;;;;;;12.88;100.00;97891.13;6253520;28;20054;-74
2023/11/02 11:00:07;;;;;;;1.38;0.38;;;;;;;12.82;100.00;97878.63;6253964;28;20052;-74
2023/11/02 11:03:10;;;;;;;0.30;0.30;;;;;;;12.91;100.00;97887.34;6253665;28;20056;-73
2023/11/02 11:06:14;;;;;;;0.20;0.20;;;;;;;12.90;100.00;97886.53;6253794;28;20045;-75
2023/11/02 11:09:16;;;;;;;0.47;0.28;;;;;;;12.89;100.00;97887.50;6252570;28;20057;-75
2023/11/02 11:12:19;;;;;;;0.43;0.20;;;;;;;12.89;100.00;97889.31;6253336;28;20052;-75
2023/11/02 11:15:23;;;;;;;1.05;0.28;;;;;;;12.88;100.00;97877.13;6253560;28;20449;-76
2023/11/02 11:18:25;;;;;;;0.40;0.30;;;;;;;12.87;100.00;97884.22;6253293;28;20049;-74
2023/11/02 11:21:28;;;;;;;0.55;0.30;;;;;;;12.79;100.00;97881.59;6253181;28;20049;-74
2023/11/02 11:24:30;;;;;;;2.92;0.30;;;;;;;12.74;100.00;97881.28;6253263;28;20454;-71
2023/11/02 11:27:33;;;;;;;1.13;0.30;;;;;;;12.79;100.00;97875.50;6253234;28;20045;-74
2023/11/02 11:30:38;;;;;;;1.88;0.20;;;;;;;12.87;100.00;97868.41;6252982;28;20052;-72
2023/11/02 11:33:49;;;;;;;0.22;0.20;;;;;;;12.85;100.00;97856.38;6252187;28;20053;-72
2023/11/02 11:36:50;;;;;;;0.30;0.20;;;;;;;12.84;100.00;97866.09;6252036;28;20508;-75
2023/11/02 11:39:53;;;;;;;0.52;0.25;;;;;;;12.75;100.00;97840.75;6252511;28;20056;-74
2023/11/02 11:42:56;;;;;;;5.70;0.40;;;;;;;12.83;100.00;97845.19;6252568;28;20052;-73
2023/11/02 11:46:01;;;;;;;0.55;0.20;;;;;;;12.79;100.00;97860.50;6251572;28;20353;-74
2023/11/02 11:49:05;;;;;;;0.88;0.35;;;;;;;12.84;100.00;97849.47;6252570;28;20053;-74
2023/11/02 11:52:20;;;;;;;0.38;0.38;;;;;;;12.83;100.00;97861.81;6252099;28;20180;-74
2023/11/02 11:55:35;;;;;;;0.80;0.52;;;;;;;12.85;100.00;97869.56;6252472;28;20085;-72
2023/11/02 11:58:48;;;;;;;1.42;0.40;;;;;;;12.90;100.00;97868.09;6251518;28;20441;-74
2023/11/02 12:02:22;;;;;;;0.47;0.30;;;;;;;12.97;100.00;97868.22;6251460;28;20054;-75
2023/11/02 12:05:56;;;;;;;0.40;0.30;;;;;;;12.87;100.00;97851.78;6247751;28;20050;-74
2023/11/02 12:08:58;;;;;;;2.22;0.30;;;;;;;12.80;100.00;97846.34;6252657;28;20050;-72
2023/11/02 12:12:03;;;;;;;0.60;0.38;;;;;;;12.77;100.00;97848.50;6251807;28;20349;-72
2023/11/02 12:15:19;;;;;;;2.30;0.68;;;;;;;12.79;100.00;97849.16;6251338;28;20049;-74
2023/11/02 12:18:28;;;;;;;1.20;0.40;;;;;;;12.79;100.00;97842.06;6248618;28;20053;-74
2023/11/02 12:21:31;;;;;;;0.98;0.30;;;;;;;12.88;100.00;97841.06;6249677;28;20052;-76
2023/11/02 12:24:37;;;;;;;0.68;0.30;;;;;;;13.02;100.00;97815.81;6244039;28;20369;-72
2023/11/02 12:27:38;;;;;;;0.63;0.40;;;;;;;13.09;100.00;97837.06;6248378;28;20042;-75
2023/11/02 12:30:43;;;;;;;0.20;0.20;;;;;;;13.08;100.00;97830.97;6251340;28;20049;-73
2023/11/02 12:33:47;;;;;;;2.15;0.70;;;;;;;13.11;100.00;97820.06;6237367;28;20049;-74
2023/11/02 12:36:50;;;;;;;1.52;0.40;;;;;;;13.15;100.00;97839.84;6226867;28;20054;-73
2023/11/02 12:40:01;;;;;;;0.30;0.30;;;;;;;13.13;100.00;97831.28;6226945;28;20049;-74
2023/11/02 12:43:04;;;;;;;0.75;0.38;;;;;;;13.10;100.00;97822.91;6226870;28;20053;-73
2023/11/02 12:46:08;;;;;;;0.73;0.50;;;;;;;13.11;100.00;97819.25;6249766;28;20072;-73
2023/11/02 12:49:19;;;;;;;7.93;0.30;;;;;;;13.01;100.00;97810.72;6251433;28;20056;-73
2023/11/02 12:52:22;;;;;;;0.93;0.32;;;;;;;13.09;100.00;97792.25;6250911;28;20049;-74
2023/11/02 12:55:25;;;;;;;5.05;0.60;;;;;;;13.12;100.00;97770.78;6251094;28;20076;-74
2023/11/02 12:58:27;;;;;;;0.85;0.35;;;;;;;13.13;100.00;97762.75;6251055;28;20132;-73
2023/11/02 13:01:43;;;;;;;0.55;0.20;;;;;;;13.09;100.00;97764.06;6250656;28;20053;-71
2023/11/02 13:04:48;;;;;;;0.68;0.40;;;;;;;13.09;100.00;97755.34;6244605;28;20079;-74
2023/11/02 13:07:52;;;;;;;1.15;0.40;;;;;;;13.08;100.00;97764.22;6251112;28;20465;-75
2023/11/02 13:10:53;;;;;;;0.50;0.45;;;;;;;13.14;100.00;97763.56;6250937;28;20159;-73
2023/11/02 13:13:54;;;;;;;1.38;0.30;;;;;;;13.15;100.00;97787.09;6250683;28;20049;-73
2023/11/02 13:16:56;;;;;;;1.75;0.73;;;;;;;13.13;100.00;97759.28;6250350;28;20361;-74
2023/11/02 13:19:57;;;;;;;5.53;1.00;;;;;;;13.11;100.00;97761.25;6250513;28;20456;-74
2023/11/02 13:23:01;;;;;;;1.02;0.38;;;;;;;13.16;100.00;97749.19;6250324;28;20048;-75
2023/11/02 13:26:06;;;;;;;3.45;0.50;;;;;;;13.25;100.00;97750.00;6250646;28;20049;-74
2023/11/02 13:29:08;;;;;;;2.08;0.50;;;;;;;13.13;100.00;97756.66;6250619;28;20350;-74
2023/11/02 13:32:10;;;;;;;1.52;0.38;;;;;;;13.19;100.00;97762.03;6257371;28;20044;-72
2023/11/02 13:35:11;;;;;;;3.35;0.43;;;;;;;13.22;100.00;97758.28;6247335;28;20053;-73
2023/11/02 13:38:14;;;;;;;0.40;0.30;;;;;;;13.19;100.00;97761.22;6250556;28;20064;-73
2023/11/02 13:41:16;;;;;;;0.65;0.30;;;;;;;13.08;100.00;97757.16;6249925;28;20049;-74
2023/11/02 13:44:17;;;;;;;0.55;0.45;;;;;;;13.05;100.00;97759.31;6250371;28;20350;-75
2023/11/02 13:47:19;;;;;;;0.70;0.50;;;;;;;13.08;100.00;97754.53;6249412;28;20053;-73
2023/11/02 13:50:20;;;;;;;1.77;0.52;;;;;;;13.03;100.00;97746.28;6249712;28;20049;-72
2023/11/02 13:53:23;;;;;;;0.75;0.40;;;;;;;12.99;100.00;97738.88;6249772;28;20045;-74
2023/11/02 13:56:25;;;;;;;2.30;0.45;;;;;;;13.04;100.00;97732.13;6249683;28;20056;-73
2023/11/02 13:59:27;;;;;;;1.73;0.40;;;;;;;13.09;100.00;97729.78;6250045;28;20049;-74
2023/11/02 14:02:29;;;;;;;2.53;0.38;;;;;;;13.05;100.00;97733.75;6249353;28;20052;-72
2023/11/02 14:05:30;;;;;;;2.55;0.30;;;;;;;13.14;100.00;97738.00;6250115;28;20056;-73
2023/11/02 14:08:33;;;;;;;1.48;0.40;;;;;;;13.09;100.00;97721.88;6249886;28;20050;-75
2023/11/02 14:11:35;;;;;;;6.47;0.55;;;;;;;13.08;100.00;97701.78;6250048;28;20061;-72
2023/11/02 14:14:36;;;;;;;4.38;0.40;;;;;;;13.08;100.00;97714.13;6249925;28;20046;-73
2023/11/02 14:17:37;;;;;;;1.08;0.40;;;;;;;13.05;100.00;97711.84;6249910;28;20057;-71
2023/11/02 14:20:39;;;;;;;0.20;0.20;;;;;;;13.06;100.00;97703.75;6249904;28;20484;-71
2023/11/02 14:23:42;;;;;;;0.40;0.40;;;;;;;13.06;100.00;97692.41;6249727;28;20049;-73